ilmateenistus.ee keskkonnaagentuur.ee
EETN Tallinn
FTEO31 EETN 071100
TAF EETN 071130Z 0712/0812 12008KT 5000 SN SCT008 BKN025 TEMPO
    0712/0719 1500 +SN BKN004 OVC015 TEMPO 0719/0806 3000 SN BKN010 BECMG
    0806/0808 VRB02KT PROB40 TEMPO 0806/0809 1000 +SN BR OVC003 BECMG
    0810/0812 23010KT=

SPECI EETN 071654Z 11007KT 1800 SN BKN022 OVC035 M04/M05 Q1001=
Tallinn
EEKA Kärdla
FCEO32 EETN 071300 AAA
TAF AMD EEKA 071700Z 0714/0720 CNL=

METAR EEKA 071650Z NIL=
Kärdla
EEKE Kuressaare
FCEO32 EETN 071500
TAF EEKE 071500Z 0716/0722 12008KT 3000 SN BKN005 OVC015 TEMPO
    0716/0718 1200 +SHSN BR BKN003 BKN010 SCT013CB=

METAR EEKE 071720Z 11004KT 3000 SN SCT008 BKN012 OVC027 00/M00 Q0998=
Kuressaare
EEPU Pärnu
METAR EEPU 071650Z AUTO 11005KT 8000 -SN FEW008/// BKN020/// OVC026/// M04/M05 Q1001=
Pärnu
EETU Tartu
METAR EETU 071650Z AUTO 12010KT 3300 -SN VV015 M05/M06 Q1002=
Tartu
EEEI Ämari
METAR EEEI 071650Z 10006KT 3100 SN OVC025 M04/M05 Q1001 NOSIG=
Ämari
Kihnu
Ruhnu
Ridali
Viljandi